sensor_id;sensor_type;location;lat;lon;timestamp;temperature;humidity
3308;DHT22;1666;48.898;9.182;2022-07-29T00:00:31;20.30;6.00
3308;DHT22;1666;48.898;9.182;2022-07-29T00:03:04;20.30;6.70
3308;DHT22;1666;48.898;9.182;2022-07-29T00:05:39;20.40;7.40
3308;DHT22;1666;48.898;9.182;2022-07-29T00:08:11;20.30;7.40
3308;DHT22;1666;48.898;9.182;2022-07-29T00:10:42;20.20;8.50
3308;DHT22;1666;48.898;9.182;2022-07-29T00:13:15;20.30;8.20
3308;DHT22;1666;48.898;9.182;2022-07-29T00:15:58;20.10;9.70
3308;DHT22;1666;48.898;9.182;2022-07-29T00:18:31;20.10;9.80
3308;DHT22;1666;48.898;9.182;2022-07-29T00:21:01;20.10;10.30
3308;DHT22;1666;48.898;9.182;2022-07-29T00:23:30;20.10;10.20
3308;DHT22;1666;48.898;9.182;2022-07-29T00:26:03;20.10;10.10
3308;DHT22;1666;48.898;9.182;2022-07-29T00:28:35;20.00;10.50
3308;DHT22;1666;48.898;9.182;2022-07-29T00:31:05;20.00;10.50
3308;DHT22;1666;48.898;9.182;2022-07-29T00:33:35;20.00;11.20
3308;DHT22;1666;48.898;9.182;2022-07-29T00:36:05;19.90;12.30
3308;DHT22;1666;48.898;9.182;2022-07-29T00:38:32;19.90;11.80
3308;DHT22;1666;48.898;9.182;2022-07-29T00:41:02;19.90;12.20
3308;DHT22;1666;48.898;9.182;2022-07-29T00:43:35;20.00;11.70
3308;DHT22;1666;48.898;9.182;2022-07-29T00:46:05;19.80;13.00
3308;DHT22;1666;48.898;9.182;2022-07-29T00:48:35;19.70;14.40
3308;DHT22;1666;48.898;9.182;2022-07-29T00:51:11;19.60;14.40
3308;DHT22;1666;48.898;9.182;2022-07-29T00:53:41;19.70;14.40
3308;DHT22;1666;48.898;9.182;2022-07-29T00:56:13;19.80;14.50
3308;DHT22;1666;48.898;9.182;2022-07-29T00:58:48;19.90;13.70
3308;DHT22;1666;48.898;9.182;2022-07-29T01:01:20;19.90;13.50
3308;DHT22;1666;48.898;9.182;2022-07-29T01:03:50;19.80;13.80
3308;DHT22;1666;48.898;9.182;2022-07-29T01:06:20;19.80;13.90
3308;DHT22;1666;48.898;9.182;2022-07-29T01:08:50;19.80;13.60
3308;DHT22;1666;48.898;9.182;2022-07-29T01:11:21;19.80;14.40
3308;DHT22;1666;48.898;9.182;2022-07-29T01:13:53;19.70;14.40
3308;DHT22;1666;48.898;9.182;2022-07-29T01:16:28;19.70;14.40
3308;DHT22;1666;48.898;9.182;2022-07-29T01:19:07;19.70;14.40
3308;DHT22;1666;48.898;9.182;2022-07-29T01:21:51;19.70;14.40
3308;DHT22;1666;48.898;9.182;2022-07-29T01:24:52;19.70;14.30
3308;DHT22;1666;48.898;9.182;2022-07-29T01:27:40;19.60;14.40
3308;DHT22;1666;48.898;9.182;2022-07-29T01:30:14;19.50;14.50
3308;DHT22;1666;48.898;9.182;2022-07-29T01:32:47;19.60;14.40
3308;DHT22;1666;48.898;9.182;2022-07-29T01:35:23;19.60;14.90
3308;DHT22;1666;48.898;9.182;2022-07-29T01:37:59;19.60;15.00
3308;DHT22;1666;48.898;9.182;2022-07-29T01:40:35;19.50;15.60
3308;DHT22;1666;48.898;9.182;2022-07-29T01:43:10;19.50;16.10
3308;DHT22;1666;48.898;9.182;2022-07-29T01:45:48;19.50;16.10
3308;DHT22;1666;48.898;9.182;2022-07-29T01:48:26;19.50;16.20
3308;DHT22;1666;48.898;9.182;2022-07-29T01:50:58;19.50;16.10
3308;DHT22;1666;48.898;9.182;2022-07-29T01:53:31;19.40;17.10
3308;DHT22;1666;48.898;9.182;2022-07-29T01:56:04;19.30;18.20
3308;DHT22;1666;48.898;9.182;2022-07-29T01:58:38;19.00;17.60
3308;DHT22;1666;48.898;9.182;2022-07-29T02:01:12;18.90;18.80
3308;DHT22;1666;48.898;9.182;2022-07-29T02:03:44;18.70;20.20
3308;DHT22;1666;48.898;9.182;2022-07-29T02:06:17;18.70;20.90
3308;DHT22;1666;48.898;9.182;2022-07-29T02:08:49;18.70;21.00
3308;DHT22;1666;48.898;9.182;2022-07-29T02:11:19;18.70;21.00
3308;DHT22;1666;48.898;9.182;2022-07-29T02:13:49;18.70;21.50
3308;DHT22;1666;48.898;9.182;2022-07-29T02:16:26;18.70;21.00
3308;DHT22;1666;48.898;9.182;2022-07-29T02:18:57;18.70;21.50
3308;DHT22;1666;48.898;9.182;2022-07-29T02:21:32;18.80;22.10
3308;DHT22;1666;48.898;9.182;2022-07-29T02:24:04;18.70;22.10
3308;DHT22;1666;48.898;9.182;2022-07-29T02:26:35;18.60;22.70
3308;DHT22;1666;48.898;9.182;2022-07-29T02:29:08;18.50;23.20
3308;DHT22;1666;48.898;9.182;2022-07-29T02:31:42;18.50;23.60
3308;DHT22;1666;48.898;9.182;2022-07-29T02:34:15;18.40;24.30
3308;DHT22;1666;48.898;9.182;2022-07-29T02:36:48;18.40;24.30
3308;DHT22;1666;48.898;9.182;2022-07-29T02:39:22;18.30;24.60
3308;DHT22;1666;48.898;9.182;2022-07-29T02:41:57;18.20;24.40
3308;DHT22;1666;48.898;9.182;2022-07-29T02:44:28;18.10;25.20
3308;DHT22;1666;48.898;9.182;2022-07-29T02:47:10;18.20;25.80
3308;DHT22;1666;48.898;9.182;2022-07-29T02:49:47;18.00;25.20
3308;DHT22;1666;48.898;9.182;2022-07-29T02:52:23;18.00;26.00
3308;DHT22;1666;48.898;9.182;2022-07-29T02:54:56;18.10;26.10
3308;DHT22;1666;48.898;9.182;2022-07-29T02:57:32;18.00;25.90
3308;DHT22;1666;48.898;9.182;2022-07-29T03:00:21;18.10;26.20
3308;DHT22;1666;48.898;9.182;2022-07-29T03:02:58;18.00;26.20
3308;DHT22;1666;48.898;9.182;2022-07-29T03:05:28;17.90;27.30
3308;DHT22;1666;48.898;9.182;2022-07-29T03:08:04;17.90;27.40
3308;DHT22;1666;48.898;9.182;2022-07-29T03:10:37;17.90;27.60
3308;DHT22;1666;48.898;9.182;2022-07-29T03:13:08;17.90;28.10
3308;DHT22;1666;48.898;9.182;2022-07-29T03:15:39;17.80;27.70
3308;DHT22;1666;48.898;9.182;2022-07-29T03:18:13;17.90;28.10
3308;DHT22;1666;48.898;9.182;2022-07-29T03:20:43;18.10;27.70
3308;DHT22;1666;48.898;9.182;2022-07-29T03:23:18;18.10;27.00
3308;DHT22;1666;48.898;9.182;2022-07-29T03:25:50;18.10;27.40
3308;DHT22;1666;48.898;9.182;2022-07-29T03:28:20;18.20;26.60
3308;DHT22;1666;48.898;9.182;2022-07-29T03:30:53;18.10;26.70
3308;DHT22;1666;48.898;9.182;2022-07-29T03:33:25;18.10;26.90
3308;DHT22;1666;48.898;9.182;2022-07-29T03:35:55;18.10;27.30
3308;DHT22;1666;48.898;9.182;2022-07-29T03:38:28;18.10;26.80
3308;DHT22;1666;48.898;9.182;2022-07-29T03:41:03;18.10;26.90
3308;DHT22;1666;48.898;9.182;2022-07-29T03:43:36;18.10;27.50
3308;DHT22;1666;48.898;9.182;2022-07-29T03:46:16;18.20;26.90
3308;DHT22;1666;48.898;9.182;2022-07-29T03:48:54;18.30;27.00
3308;DHT22;1666;48.898;9.182;2022-07-29T03:51:25;18.50;26.00
3308;DHT22;1666;48.898;9.182;2022-07-29T03:54:01;18.60;24.50
3308;DHT22;1666;48.898;9.182;2022-07-29T03:56:40;18.70;23.60
3308;DHT22;1666;48.898;9.182;2022-07-29T03:59:11;18.80;23.30
3308;DHT22;1666;48.898;9.182;2022-07-29T04:01:42;18.90;23.10
3308;DHT22;1666;48.898;9.182;2022-07-29T04:04:15;19.00;22.30
3308;DHT22;1666;48.898;9.182;2022-07-29T04:06:46;19.20;21.40
3308;DHT22;1666;48.898;9.182;2022-07-29T04:09:16;19.10;21.90
3308;DHT22;1666;48.898;9.182;2022-07-29T04:11:46;19.20;22.00
3308;DHT22;1666;48.898;9.182;2022-07-29T04:14:30;19.30;21.40
3308;DHT22;1666;48.898;9.182;2022-07-29T04:17:00;19.50;20.60
3308;DHT22;1666;48.898;9.182;2022-07-29T04:19:33;19.50;19.40
3308;DHT22;1666;48.898;9.182;2022-07-29T04:22:02;19.50;16.20
3308;DHT22;1666;48.898;9.182;2022-07-29T04:24:32;19.30;18.10
3308;DHT22;1666;48.898;9.182;2022-07-29T04:27:02;19.10;17.10
3308;DHT22;1666;48.898;9.182;2022-07-29T04:29:32;19.00;19.90
3308;DHT22;1666;48.898;9.182;2022-07-29T04:32:22;19.00;21.20
3308;DHT22;1666;48.898;9.182;2022-07-29T04:34:54;19.10;20.40
3308;DHT22;1666;48.898;9.182;2022-07-29T04:37:24;19.10;20.70
3308;DHT22;1666;48.898;9.182;2022-07-29T04:39:54;19.30;20.20
3308;DHT22;1666;48.898;9.182;2022-07-29T04:42:24;19.20;19.90
3308;DHT22;1666;48.898;9.182;2022-07-29T04:44:55;19.30;20.10
3308;DHT22;1666;48.898;9.182;2022-07-29T04:47:27;19.20;21.20
3308;DHT22;1666;48.898;9.182;2022-07-29T04:49:59;19.30;21.00
3308;DHT22;1666;48.898;9.182;2022-07-29T04:52:29;19.40;21.40
3308;DHT22;1666;48.898;9.182;2022-07-29T04:54:59;20.30;14.80
3308;DHT22;1666;48.898;9.182;2022-07-29T04:57:29;22.00;1.00
3308;DHT22;1666;48.898;9.182;2022-07-29T04:59:59;22.60;1.00
3308;DHT22;1666;48.898;9.182;2022-07-29T05:02:29;22.80;1.00
3308;DHT22;1666;48.898;9.182;2022-07-29T05:05:02;22.50;1.00
3308;DHT22;1666;48.898;9.182;2022-07-29T05:07:32;21.40;1.00
3308;DHT22;1666;48.898;9.182;2022-07-29T05:10:03;20.70;6.80
3308;DHT22;1666;48.898;9.182;2022-07-29T05:12:33;22.60;1.00
3308;DHT22;1666;48.898;9.182;2022-07-29T05:15:04;23.20;1.00
3308;DHT22;1666;48.898;9.182;2022-07-29T05:17:34;24.00;1.00
3308;DHT22;1666;48.898;9.182;2022-07-29T05:20:08;24.10;1.00
3308;DHT22;1666;48.898;9.182;2022-07-29T05:22:38;23.80;1.00
3308;DHT22;1666;48.898;9.182;2022-07-29T05:25:08;21.60;1.00
3308;DHT22;1666;48.898;9.182;2022-07-29T05:27:38;21.30;1.00
3308;DHT22;1666;48.898;9.182;2022-07-29T05:30:09;21.80;1.00
3308;DHT22;1666;48.898;9.182;2022-07-29T05:32:39;23.30;1.00
3308;DHT22;1666;48.898;9.182;2022-07-29T05:35:13;24.20;1.00
3308;DHT22;1666;48.898;9.182;2022-07-29T05:37:43;24.70;1.00
3308;DHT22;1666;48.898;9.182;2022-07-29T05:40:13;24.50;1.00
3308;DHT22;1666;48.898;9.182;2022-07-29T05:42:42;23.70;1.00
3308;DHT22;1666;48.898;9.182;2022-07-29T05:45:12;23.90;1.00
3308;DHT22;1666;48.898;9.182;2022-07-29T05:47:42;24.30;1.00
3308;DHT22;1666;48.898;9.182;2022-07-29T05:50:14;23.90;1.00
3308;DHT22;1666;48.898;9.182;2022-07-29T05:52:44;22.50;1.00
3308;DHT22;1666;48.898;9.182;2022-07-29T05:55:15;22.50;1.00
3308;DHT22;1666;48.898;9.182;2022-07-29T05:57:45;22.30;1.00
3308;DHT22;1666;48.898;9.182;2022-07-29T06:00:16;22.60;1.00
3308;DHT22;1666;48.898;9.182;2022-07-29T06:02:46;22.30;1.00
3308;DHT22;1666;48.898;9.182;2022-07-29T06:05:18;22.30;1.00
3308;DHT22;1666;48.898;9.182;2022-07-29T06:07:48;22.10;1.00
3308;DHT22;1666;48.898;9.182;2022-07-29T06:10:18;22.40;1.00
3308;DHT22;1666;48.898;9.182;2022-07-29T06:12:53;22.10;1.00
3308;DHT22;1666;48.898;9.182;2022-07-29T06:15:23;22.70;1.00
3308;DHT22;1666;48.898;9.182;2022-07-29T06:17:53;22.40;1.00
3308;DHT22;1666;48.898;9.182;2022-07-29T06:20:31;22.40;1.00
3308;DHT22;1666;48.898;9.182;2022-07-29T06:23:03;22.50;1.00
3308;DHT22;1666;48.898;9.182;2022-07-29T06:25:35;23.30;1.00
3308;DHT22;1666;48.898;9.182;2022-07-29T06:28:06;23.70;1.00
3308;DHT22;1666;48.898;9.182;2022-07-29T06:30:36;24.40;1.00
3308;DHT22;1666;48.898;9.182;2022-07-29T06:33:06;23.90;1.00
3308;DHT22;1666;48.898;9.182;2022-07-29T06:35:38;23.70;1.00
3308;DHT22;1666;48.898;9.182;2022-07-29T06:38:20;23.40;1.00
3308;DHT22;1666;48.898;9.182;2022-07-29T06:41:00;23.20;1.00
3308;DHT22;1666;48.898;9.182;2022-07-29T06:43:32;23.40;1.00
3308;DHT22;1666;48.898;9.182;2022-07-29T06:46:18;23.10;1.00
3308;DHT22;1666;48.898;9.182;2022-07-29T06:48:49;23.00;1.00
3308;DHT22;1666;48.898;9.182;2022-07-29T06:51:22;22.60;1.00
3308;DHT22;1666;48.898;9.182;2022-07-29T06:53:54;22.40;1.00
3308;DHT22;1666;48.898;9.182;2022-07-29T06:56:29;22.50;1.00
3308;DHT22;1666;48.898;9.182;2022-07-29T06:59:06;22.20;1.00
3308;DHT22;1666;48.898;9.182;2022-07-29T07:01:37;22.60;1.00
3308;DHT22;1666;48.898;9.182;2022-07-29T07:04:08;22.90;1.00
3308;DHT22;1666;48.898;9.182;2022-07-29T07:06:40;23.30;1.00
3308;DHT22;1666;48.898;9.182;2022-07-29T07:09:10;23.40;1.00
3308;DHT22;1666;48.898;9.182;2022-07-29T07:11:40;23.90;1.00
3308;DHT22;1666;48.898;9.182;2022-07-29T07:14:15;23.90;1.00
3308;DHT22;1666;48.898;9.182;2022-07-29T07:16:46;23.70;1.00
3308;DHT22;1666;48.898;9.182;2022-07-29T07:19:18;23.40;1.00
3308;DHT22;1666;48.898;9.182;2022-07-29T07:21:54;23.90;1.00
3308;DHT22;1666;48.898;9.182;2022-07-29T07:24:24;23.10;1.00
3308;DHT22;1666;48.898;9.182;2022-07-29T07:26:53;23.90;1.00
3308;DHT22;1666;48.898;9.182;2022-07-29T07:29:24;24.50;1.00
3308;DHT22;1666;48.898;9.182;2022-07-29T07:31:53;24.30;1.00
3308;DHT22;1666;48.898;9.182;2022-07-29T07:34:27;24.20;1.00
3308;DHT22;1666;48.898;9.182;2022-07-29T07:37:00;24.60;1.00
3308;DHT22;1666;48.898;9.182;2022-07-29T07:39:30;24.30;1.00
3308;DHT22;1666;48.898;9.182;2022-07-29T07:42:00;24.90;1.00
3308;DHT22;1666;48.898;9.182;2022-07-29T07:44:30;25.20;1.00
3308;DHT22;1666;48.898;9.182;2022-07-29T07:47:20;25.00;1.00
3308;DHT22;1666;48.898;9.182;2022-07-29T07:49:53;25.40;1.00
3308;DHT22;1666;48.898;9.182;2022-07-29T07:52:26;25.50;1.00
3308;DHT22;1666;48.898;9.182;2022-07-29T07:54:56;25.70;1.00
3308;DHT22;1666;48.898;9.182;2022-07-29T07:57:26;25.60;1.00
3308;DHT22;1666;48.898;9.182;2022-07-29T07:59:56;24.30;1.00
3308;DHT22;1666;48.898;9.182;2022-07-29T08:02:26;24.60;1.00
3308;DHT22;1666;48.898;9.182;2022-07-29T08:04:56;25.10;1.00
3308;DHT22;1666;48.898;9.182;2022-07-29T08:07:29;25.30;1.00
3308;DHT22;1666;48.898;9.182;2022-07-29T08:09:58;25.00;1.00
3308;DHT22;1666;48.898;9.182;2022-07-29T08:12:28;25.90;1.00
3308;DHT22;1666;48.898;9.182;2022-07-29T08:14:58;25.60;1.00
3308;DHT22;1666;48.898;9.182;2022-07-29T08:17:28;25.30;1.00
3308;DHT22;1666;48.898;9.182;2022-07-29T08:20:01;25.70;1.00
3308;DHT22;1666;48.898;9.182;2022-07-29T08:22:34;24.90;1.00
3308;DHT22;1666;48.898;9.182;2022-07-29T08:25:05;25.20;1.00
3308;DHT22;1666;48.898;9.182;2022-07-29T08:27:35;25.40;1.00
3308;DHT22;1666;48.898;9.182;2022-07-29T08:30:11;25.70;1.00
3308;DHT22;1666;48.898;9.182;2022-07-29T08:32:41;25.70;1.00
3308;DHT22;1666;48.898;9.182;2022-07-29T08:35:21;24.90;1.00
3308;DHT22;1666;48.898;9.182;2022-07-29T08:37:54;25.70;1.00
3308;DHT22;1666;48.898;9.182;2022-07-29T08:40:25;25.20;1.00
3308;DHT22;1666;48.898;9.182;2022-07-29T08:43:03;26.00;1.00
3308;DHT22;1666;48.898;9.182;2022-07-29T08:45:42;26.40;1.00
3308;DHT22;1666;48.898;9.182;2022-07-29T08:48:15;26.70;1.00
3308;DHT22;1666;48.898;9.182;2022-07-29T08:50:47;26.50;1.00
3308;DHT22;1666;48.898;9.182;2022-07-29T08:53:21;26.20;1.00
3308;DHT22;1666;48.898;9.182;2022-07-29T08:55:54;26.30;1.00
3308;DHT22;1666;48.898;9.182;2022-07-29T08:58:24;26.50;1.00
3308;DHT22;1666;48.898;9.182;2022-07-29T09:00:55;25.80;1.00
3308;DHT22;1666;48.898;9.182;2022-07-29T09:03:30;25.80;1.00
3308;DHT22;1666;48.898;9.182;2022-07-29T09:06:01;26.40;1.00
3308;DHT22;1666;48.898;9.182;2022-07-29T09:08:34;26.00;1.00
3308;DHT22;1666;48.898;9.182;2022-07-29T09:11:04;26.10;1.00
3308;DHT22;1666;48.898;9.182;2022-07-29T09:13:35;26.90;1.00
3308;DHT22;1666;48.898;9.182;2022-07-29T09:16:05;26.10;1.00
3308;DHT22;1666;48.898;9.182;2022-07-29T09:18:36;26.40;1.00
3308;DHT22;1666;48.898;9.182;2022-07-29T09:21:10;26.50;1.00
3308;DHT22;1666;48.898;9.182;2022-07-29T09:24:06;26.10;1.00
3308;DHT22;1666;48.898;9.182;2022-07-29T09:26:39;26.40;1.00
3308;DHT22;1666;48.898;9.182;2022-07-29T09:29:10;26.10;1.00
3308;DHT22;1666;48.898;9.182;2022-07-29T09:31:41;26.60;1.00
3308;DHT22;1666;48.898;9.182;2022-07-29T09:34:14;26.90;1.00
3308;DHT22;1666;48.898;9.182;2022-07-29T09:36:45;27.00;1.00
3308;DHT22;1666;48.898;9.182;2022-07-29T09:39:27;27.10;1.00
3308;DHT22;1666;48.898;9.182;2022-07-29T09:41:59;26.30;1.00
3308;DHT22;1666;48.898;9.182;2022-07-29T09:44:42;26.70;1.00
3308;DHT22;1666;48.898;9.182;2022-07-29T09:47:12;26.80;1.00
3308;DHT22;1666;48.898;9.182;2022-07-29T09:49:53;26.20;1.00
3308;DHT22;1666;48.898;9.182;2022-07-29T09:52:25;26.60;1.00
3308;DHT22;1666;48.898;9.182;2022-07-29T09:55:08;27.30;1.00
3308;DHT22;1666;48.898;9.182;2022-07-29T09:57:45;27.20;1.00
3308;DHT22;1666;48.898;9.182;2022-07-29T10:00:16;27.20;1.00
3308;DHT22;1666;48.898;9.182;2022-07-29T10:02:47;27.10;1.00
3308;DHT22;1666;48.898;9.182;2022-07-29T10:05:19;26.90;1.00
3308;DHT22;1666;48.898;9.182;2022-07-29T10:07:51;26.80;1.00
3308;DHT22;1666;48.898;9.182;2022-07-29T10:10:27;26.80;1.00
3308;DHT22;1666;48.898;9.182;2022-07-29T10:12:58;27.70;1.00
3308;DHT22;1666;48.898;9.182;2022-07-29T10:15:36;26.90;1.00
3308;DHT22;1666;48.898;9.182;2022-07-29T10:18:08;26.50;1.00
3308;DHT22;1666;48.898;9.182;2022-07-29T10:20:38;26.00;1.00
3308;DHT22;1666;48.898;9.182;2022-07-29T10:23:09;26.00;1.00
3308;DHT22;1666;48.898;9.182;2022-07-29T10:25:42;26.70;1.00
3308;DHT22;1666;48.898;9.182;2022-07-29T10:28:12;27.20;1.00
3308;DHT22;1666;48.898;9.182;2022-07-29T10:30:43;27.10;1.00
3308;DHT22;1666;48.898;9.182;2022-07-29T10:33:25;26.50;1.00
3308;DHT22;1666;48.898;9.182;2022-07-29T10:36:07;26.20;1.00
3308;DHT22;1666;48.898;9.182;2022-07-29T10:38:47;26.30;1.00
3308;DHT22;1666;48.898;9.182;2022-07-29T10:44:27;26.40;1.00
3308;DHT22;1666;48.898;9.182;2022-07-29T10:46:58;26.10;1.00
3308;DHT22;1666;48.898;9.182;2022-07-29T10:49:28;26.00;1.00
3308;DHT22;1666;48.898;9.182;2022-07-29T10:52:05;26.10;1.00
3308;DHT22;1666;48.898;9.182;2022-07-29T10:54:44;26.00;1.00
3308;DHT22;1666;48.898;9.182;2022-07-29T10:57:17;25.80;1.00
3308;DHT22;1666;48.898;9.182;2022-07-29T11:00:30;26.10;1.00
3308;DHT22;1666;48.898;9.182;2022-07-29T11:03:00;26.00;1.00
3308;DHT22;1666;48.898;9.182;2022-07-29T11:05:54;26.00;1.00
3308;DHT22;1666;48.898;9.182;2022-07-29T11:08:26;26.10;1.00
3308;DHT22;1666;48.898;9.182;2022-07-29T11:14:03;25.90;1.00
3308;DHT22;1666;48.898;9.182;2022-07-29T11:17:03;26.00;1.00
3308;DHT22;1666;48.898;9.182;2022-07-29T11:19:35;25.90;1.00
3308;DHT22;1666;48.898;9.182;2022-07-29T11:22:32;26.30;1.00
3308;DHT22;1666;48.898;9.182;2022-07-29T11:25:14;26.50;1.00
3308;DHT22;1666;48.898;9.182;2022-07-29T11:28:10;26.50;1.00
3308;DHT22;1666;48.898;9.182;2022-07-29T11:30:53;26.30;1.00
3308;DHT22;1666;48.898;9.182;2022-07-29T11:33:30;26.20;1.00
3308;DHT22;1666;48.898;9.182;2022-07-29T11:36:20;26.40;1.00
3308;DHT22;1666;48.898;9.182;2022-07-29T11:39:25;26.50;1.00
3308;DHT22;1666;48.898;9.182;2022-07-29T11:45:09;27.40;1.00
3308;DHT22;1666;48.898;9.182;2022-07-29T11:48:00;27.50;1.00
3308;DHT22;1666;48.898;9.182;2022-07-29T11:50:52;28.10;1.00
3308;DHT22;1666;48.898;9.182;2022-07-29T11:53:24;28.40;1.00
3308;DHT22;1666;48.898;9.182;2022-07-29T11:55:59;28.10;1.00
3308;DHT22;1666;48.898;9.182;2022-07-29T11:58:30;28.10;1.00
3308;DHT22;1666;48.898;9.182;2022-07-29T12:01:00;28.10;1.00
3308;DHT22;1666;48.898;9.182;2022-07-29T12:03:31;28.30;1.00
3308;DHT22;1666;48.898;9.182;2022-07-29T12:06:11;28.10;1.00
3308;DHT22;1666;48.898;9.182;2022-07-29T12:09:07;26.80;1.00
3308;DHT22;1666;48.898;9.182;2022-07-29T12:11:40;26.90;1.00
3308;DHT22;1666;48.898;9.182;2022-07-29T12:14:26;27.20;1.00
3308;DHT22;1666;48.898;9.182;2022-07-29T12:16:57;27.10;1.00
3308;DHT22;1666;48.898;9.182;2022-07-29T12:19:28;26.90;1.00
3308;DHT22;1666;48.898;9.182;2022-07-29T12:22:00;26.80;1.00
3308;DHT22;1666;48.898;9.182;2022-07-29T12:24:43;26.90;1.00
3308;DHT22;1666;48.898;9.182;2022-07-29T12:27:17;27.10;1.00
3308;DHT22;1666;48.898;9.182;2022-07-29T12:29:56;27.10;1.00
3308;DHT22;1666;48.898;9.182;2022-07-29T12:32:31;27.00;1.00
3308;DHT22;1666;48.898;9.182;2022-07-29T12:35:04;27.00;1.00
3308;DHT22;1666;48.898;9.182;2022-07-29T12:37:39;26.80;1.00
3308;DHT22;1666;48.898;9.182;2022-07-29T12:40:11;26.60;1.00
3308;DHT22;1666;48.898;9.182;2022-07-29T12:43:11;27.00;1.00
3308;DHT22;1666;48.898;9.182;2022-07-29T12:45:44;26.60;1.00
3308;DHT22;1666;48.898;9.182;2022-07-29T12:48:16;26.20;1.00
3308;DHT22;1666;48.898;9.182;2022-07-29T12:50:55;26.30;1.00
3308;DHT22;1666;48.898;9.182;2022-07-29T12:53:27;26.10;1.00
3308;DHT22;1666;48.898;9.182;2022-07-29T12:55:58;26.10;1.00
3308;DHT22;1666;48.898;9.182;2022-07-29T12:58:42;25.90;1.00
3308;DHT22;1666;48.898;9.182;2022-07-29T13:01:17;25.90;1.00
3308;DHT22;1666;48.898;9.182;2022-07-29T13:03:50;26.00;1.00
3308;DHT22;1666;48.898;9.182;2022-07-29T13:06:37;26.00;1.00
3308;DHT22;1666;48.898;9.182;2022-07-29T13:09:15;26.10;1.00
3308;DHT22;1666;48.898;9.182;2022-07-29T13:11:47;26.40;1.00
3308;DHT22;1666;48.898;9.182;2022-07-29T13:14:31;26.80;1.00
3308;DHT22;1666;48.898;9.182;2022-07-29T13:17:04;26.60;1.00
3308;DHT22;1666;48.898;9.182;2022-07-29T13:19:36;26.60;1.00
3308;DHT22;1666;48.898;9.182;2022-07-29T13:22:07;26.50;1.00
3308;DHT22;1666;48.898;9.182;2022-07-29T13:24:51;26.60;1.00
3308;DHT22;1666;48.898;9.182;2022-07-29T13:27:22;26.40;1.00
3308;DHT22;1666;48.898;9.182;2022-07-29T13:29:54;26.20;1.00
3308;DHT22;1666;48.898;9.182;2022-07-29T13:32:28;26.10;1.00
3308;DHT22;1666;48.898;9.182;2022-07-29T13:34:59;26.00;1.00
3308;DHT22;1666;48.898;9.182;2022-07-29T13:37:31;26.30;1.00
3308;DHT22;1666;48.898;9.182;2022-07-29T13:40:05;26.20;1.00
3308;DHT22;1666;48.898;9.182;2022-07-29T13:42:35;26.10;1.00
3308;DHT22;1666;48.898;9.182;2022-07-29T13:45:07;25.90;1.00
3308;DHT22;1666;48.898;9.182;2022-07-29T13:47:37;26.40;1.00
3308;DHT22;1666;48.898;9.182;2022-07-29T13:50:15;26.80;1.00
3308;DHT22;1666;48.898;9.182;2022-07-29T13:52:45;27.10;1.00
3308;DHT22;1666;48.898;9.182;2022-07-29T13:55:19;27.20;1.00
3308;DHT22;1666;48.898;9.182;2022-07-29T13:57:49;26.80;1.00
3308;DHT22;1666;48.898;9.182;2022-07-29T14:00:19;27.00;1.00
3308;DHT22;1666;48.898;9.182;2022-07-29T14:02:50;27.50;1.00
3308;DHT22;1666;48.898;9.182;2022-07-29T14:05:20;27.00;1.00
3308;DHT22;1666;48.898;9.182;2022-07-29T14:07:50;26.90;1.00
3308;DHT22;1666;48.898;9.182;2022-07-29T14:10:22;26.90;1.00
3308;DHT22;1666;48.898;9.182;2022-07-29T14:12:52;26.30;1.00
3308;DHT22;1666;48.898;9.182;2022-07-29T14:15:22;26.30;1.00
3308;DHT22;1666;48.898;9.182;2022-07-29T14:17:52;26.40;1.00
3308;DHT22;1666;48.898;9.182;2022-07-29T14:20:22;26.50;1.00
3308;DHT22;1666;48.898;9.182;2022-07-29T14:22:52;26.40;1.00
3308;DHT22;1666;48.898;9.182;2022-07-29T14:25:24;26.90;1.00
3308;DHT22;1666;48.898;9.182;2022-07-29T14:27:54;26.90;1.00
3308;DHT22;1666;48.898;9.182;2022-07-29T14:30:24;27.00;1.00
3308;DHT22;1666;48.898;9.182;2022-07-29T14:32:54;27.30;1.00
3308;DHT22;1666;48.898;9.182;2022-07-29T14:35:24;27.30;1.00
3308;DHT22;1666;48.898;9.182;2022-07-29T14:37:54;27.20;1.00
3308;DHT22;1666;48.898;9.182;2022-07-29T14:40:27;27.40;1.00
3308;DHT22;1666;48.898;9.182;2022-07-29T14:42:57;27.30;1.00
3308;DHT22;1666;48.898;9.182;2022-07-29T14:45:27;27.30;1.00
3308;DHT22;1666;48.898;9.182;2022-07-29T14:47:58;27.20;1.00
3308;DHT22;1666;48.898;9.182;2022-07-29T14:50:28;27.20;1.00
3308;DHT22;1666;48.898;9.182;2022-07-29T14:52:58;27.40;1.00
3308;DHT22;1666;48.898;9.182;2022-07-29T14:55:31;27.20;1.00
3308;DHT22;1666;48.898;9.182;2022-07-29T14:58:01;27.40;1.00
3308;DHT22;1666;48.898;9.182;2022-07-29T15:00:39;27.80;1.00
3308;DHT22;1666;48.898;9.182;2022-07-29T15:03:09;27.80;1.00
3308;DHT22;1666;48.898;9.182;2022-07-29T15:05:49;27.70;1.00
3308;DHT22;1666;48.898;9.182;2022-07-29T15:08:19;27.70;1.00
3308;DHT22;1666;48.898;9.182;2022-07-29T15:10:52;27.80;1.00
3308;DHT22;1666;48.898;9.182;2022-07-29T15:13:24;27.70;1.00
3308;DHT22;1666;48.898;9.182;2022-07-29T15:15:54;27.80;1.00
3308;DHT22;1666;48.898;9.182;2022-07-29T15:18:29;27.70;1.00
3308;DHT22;1666;48.898;9.182;2022-07-29T15:20:59;27.00;1.00
3308;DHT22;1666;48.898;9.182;2022-07-29T15:23:29;27.00;1.00
3308;DHT22;1666;48.898;9.182;2022-07-29T15:26:02;27.10;1.00
3308;DHT22;1666;48.898;9.182;2022-07-29T15:28:32;27.20;1.00
3308;DHT22;1666;48.898;9.182;2022-07-29T15:31:02;26.80;1.00
3308;DHT22;1666;48.898;9.182;2022-07-29T15:33:31;27.00;1.00
3308;DHT22;1666;48.898;9.182;2022-07-29T15:36:01;27.10;1.00
3308;DHT22;1666;48.898;9.182;2022-07-29T15:38:31;27.30;1.00
3308;DHT22;1666;48.898;9.182;2022-07-29T15:41:13;27.10;1.00
3308;DHT22;1666;48.898;9.182;2022-07-29T15:43:44;27.00;1.00
3308;DHT22;1666;48.898;9.182;2022-07-29T15:46:16;27.20;1.00
3308;DHT22;1666;48.898;9.182;2022-07-29T15:48:58;27.00;1.00
3308;DHT22;1666;48.898;9.182;2022-07-29T15:51:28;27.00;1.00
3308;DHT22;1666;48.898;9.182;2022-07-29T15:54:00;27.10;1.00
3308;DHT22;1666;48.898;9.182;2022-07-29T15:56:32;27.00;1.00
3308;DHT22;1666;48.898;9.182;2022-07-29T15:59:02;26.90;1.00
3308;DHT22;1666;48.898;9.182;2022-07-29T16:01:32;26.90;1.00
3308;DHT22;1666;48.898;9.182;2022-07-29T16:04:08;27.00;1.00
3308;DHT22;1666;48.898;9.182;2022-07-29T16:06:38;26.90;1.00
3308;DHT22;1666;48.898;9.182;2022-07-29T16:09:08;26.80;1.00
3308;DHT22;1666;48.898;9.182;2022-07-29T16:11:41;27.00;1.00
3308;DHT22;1666;48.898;9.182;2022-07-29T16:14:12;27.00;1.00
3308;DHT22;1666;48.898;9.182;2022-07-29T16:16:42;26.90;1.00
3308;DHT22;1666;48.898;9.182;2022-07-29T16:19:12;26.90;1.00
3308;DHT22;1666;48.898;9.182;2022-07-29T16:21:42;26.90;1.00
3308;DHT22;1666;48.898;9.182;2022-07-29T16:24:12;26.70;1.00
3308;DHT22;1666;48.898;9.182;2022-07-29T16:26:44;26.80;1.00
3308;DHT22;1666;48.898;9.182;2022-07-29T16:29:16;27.10;1.00
3308;DHT22;1666;48.898;9.182;2022-07-29T16:31:46;26.60;1.00
3308;DHT22;1666;48.898;9.182;2022-07-29T16:34:16;26.60;1.00
3308;DHT22;1666;48.898;9.182;2022-07-29T16:36:45;26.80;1.00
3308;DHT22;1666;48.898;9.182;2022-07-29T16:39:15;26.50;1.00
3308;DHT22;1666;48.898;9.182;2022-07-29T16:41:48;26.30;1.00
3308;DHT22;1666;48.898;9.182;2022-07-29T16:44:22;26.60;1.00
3308;DHT22;1666;48.898;9.182;2022-07-29T16:46:52;26.60;1.00
3308;DHT22;1666;48.898;9.182;2022-07-29T16:49:25;26.50;1.00
3308;DHT22;1666;48.898;9.182;2022-07-29T16:51:55;26.50;1.00
3308;DHT22;1666;48.898;9.182;2022-07-29T16:54:26;26.60;1.00
3308;DHT22;1666;48.898;9.182;2022-07-29T16:56:59;26.40;1.00
3308;DHT22;1666;48.898;9.182;2022-07-29T16:59:29;26.40;1.00
3308;DHT22;1666;48.898;9.182;2022-07-29T17:02:09;26.40;1.00
3308;DHT22;1666;48.898;9.182;2022-07-29T17:04:39;26.50;1.00